sensor_id;sensor_type;location;lat;lon;timestamp;temperature;humidity
11089;DHT22;5598;48.648;8.908;2023-02-28T00:00:37;-3.10;86.00
11089;DHT22;5598;48.648;8.908;2023-02-28T00:03:04;-3.10;86.60
11089;DHT22;5598;48.648;8.908;2023-02-28T00:05:31;-3.10;86.60
11089;DHT22;5598;48.648;8.908;2023-02-28T00:07:58;-3.10;86.90
11089;DHT22;5598;48.648;8.908;2023-02-28T00:10:26;-3.20;86.80
11089;DHT22;5598;48.648;8.908;2023-02-28T00:12:58;-3.20;87.00
11089;DHT22;5598;48.648;8.908;2023-02-28T00:15:26;-3.30;87.20
11089;DHT22;5598;48.648;8.908;2023-02-28T00:17:53;-3.30;87.10
11089;DHT22;5598;48.648;8.908;2023-02-28T00:20:20;-3.40;87.50
11089;DHT22;5598;48.648;8.908;2023-02-28T00:22:48;-3.40;87.50
11089;DHT22;5598;48.648;8.908;2023-02-28T00:25:16;-3.40;87.50
11089;DHT22;5598;48.648;8.908;2023-02-28T00:27:44;-3.40;87.90
11089;DHT22;5598;48.648;8.908;2023-02-28T00:30:14;-3.40;88.10
11089;DHT22;5598;48.648;8.908;2023-02-28T00:32:41;-3.40;87.80
11089;DHT22;5598;48.648;8.908;2023-02-28T00:35:08;-3.40;88.10
11089;DHT22;5598;48.648;8.908;2023-02-28T00:37:35;-3.40;88.30
11089;DHT22;5598;48.648;8.908;2023-02-28T00:40:03;-3.40;88.20
11089;DHT22;5598;48.648;8.908;2023-02-28T00:42:32;-3.40;88.30
11089;DHT22;5598;48.648;8.908;2023-02-28T00:44:58;-3.40;88.30
11089;DHT22;5598;48.648;8.908;2023-02-28T00:47:27;-3.40;88.60
11089;DHT22;5598;48.648;8.908;2023-02-28T00:49:53;-3.40;88.80
11089;DHT22;5598;48.648;8.908;2023-02-28T00:52:20;-3.40;88.80
11089;DHT22;5598;48.648;8.908;2023-02-28T00:54:47;-3.40;88.80
11089;DHT22;5598;48.648;8.908;2023-02-28T00:57:14;-3.50;88.80
11089;DHT22;5598;48.648;8.908;2023-02-28T00:59:41;-3.50;89.80
11089;DHT22;5598;48.648;8.908;2023-02-28T01:02:08;-3.50;89.20
11089;DHT22;5598;48.648;8.908;2023-02-28T01:04:36;-3.50;89.50
11089;DHT22;5598;48.648;8.908;2023-02-28T01:07:03;-3.50;89.70
11089;DHT22;5598;48.648;8.908;2023-02-28T01:09:30;-3.50;89.80
11089;DHT22;5598;48.648;8.908;2023-02-28T01:11:57;-3.50;89.70
11089;DHT22;5598;48.648;8.908;2023-02-28T01:14:23;-3.50;90.00
11089;DHT22;5598;48.648;8.908;2023-02-28T01:16:50;-3.50;90.00
11089;DHT22;5598;48.648;8.908;2023-02-28T01:19:18;-3.50;90.20
11089;DHT22;5598;48.648;8.908;2023-02-28T01:21:46;-3.50;90.10
11089;DHT22;5598;48.648;8.908;2023-02-28T01:24:13;-3.50;90.30
11089;DHT22;5598;48.648;8.908;2023-02-28T01:26:39;-3.50;90.20
11089;DHT22;5598;48.648;8.908;2023-02-28T01:29:06;-3.50;90.30
11089;DHT22;5598;48.648;8.908;2023-02-28T01:31:33;-3.50;90.30
11089;DHT22;5598;48.648;8.908;2023-02-28T01:34:00;-3.50;90.40
11089;DHT22;5598;48.648;8.908;2023-02-28T01:36:27;-3.60;90.50
11089;DHT22;5598;48.648;8.908;2023-02-28T01:38:55;-3.60;90.70
11089;DHT22;5598;48.648;8.908;2023-02-28T01:41:24;-3.70;90.60
11089;DHT22;5598;48.648;8.908;2023-02-28T01:44:01;-3.70;90.90
11089;DHT22;5598;48.648;8.908;2023-02-28T01:46:30;-3.70;91.00
11089;DHT22;5598;48.648;8.908;2023-02-28T01:49:04;-3.70;91.10
11089;DHT22;5598;48.648;8.908;2023-02-28T01:51:35;-3.70;91.30
11089;DHT22;5598;48.648;8.908;2023-02-28T01:54:08;-3.70;91.30
11089;DHT22;5598;48.648;8.908;2023-02-28T01:56:43;-3.70;91.30
11089;DHT22;5598;48.648;8.908;2023-02-28T01:59:12;-3.70;91.40
11089;DHT22;5598;48.648;8.908;2023-02-28T02:01:41;-3.70;91.50
11089;DHT22;5598;48.648;8.908;2023-02-28T02:04:08;-3.80;91.70
11089;DHT22;5598;48.648;8.908;2023-02-28T02:06:42;-3.70;91.90
11089;DHT22;5598;48.648;8.908;2023-02-28T02:09:11;-3.70;92.00
11089;DHT22;5598;48.648;8.908;2023-02-28T02:11:40;-3.70;92.00
11089;DHT22;5598;48.648;8.908;2023-02-28T02:14:36;-3.70;92.10
11089;DHT22;5598;48.648;8.908;2023-02-28T02:17:14;-3.70;92.20
11089;DHT22;5598;48.648;8.908;2023-02-28T02:23:08;-3.70;92.40
11089;DHT22;5598;48.648;8.908;2023-02-28T02:25:40;-3.70;92.40
11089;DHT22;5598;48.648;8.908;2023-02-28T02:28:22;-3.80;92.50
11089;DHT22;5598;48.648;8.908;2023-02-28T02:31:20;-3.80;92.70
11089;DHT22;5598;48.648;8.908;2023-02-28T02:34:23;-3.80;92.80
11089;DHT22;5598;48.648;8.908;2023-02-28T02:37:00;-3.80;93.00
11089;DHT22;5598;48.648;8.908;2023-02-28T02:39:33;-3.80;93.30
11089;DHT22;5598;48.648;8.908;2023-02-28T02:42:05;-3.80;93.30
11089;DHT22;5598;48.648;8.908;2023-02-28T02:44:40;-3.70;93.40
11089;DHT22;5598;48.648;8.908;2023-02-28T02:47:12;-3.70;93.60
11089;DHT22;5598;48.648;8.908;2023-02-28T02:49:44;-3.70;93.50
11089;DHT22;5598;48.648;8.908;2023-02-28T02:52:14;-3.60;93.70
11089;DHT22;5598;48.648;8.908;2023-02-28T02:54:44;-3.50;93.80
11089;DHT22;5598;48.648;8.908;2023-02-28T02:57:17;-3.50;93.80
11089;DHT22;5598;48.648;8.908;2023-02-28T02:59:46;-3.40;93.90
11089;DHT22;5598;48.648;8.908;2023-02-28T03:02:16;-3.40;93.90
11089;DHT22;5598;48.648;8.908;2023-02-28T03:04:48;-3.30;93.90
11089;DHT22;5598;48.648;8.908;2023-02-28T03:07:34;-3.30;93.70
11089;DHT22;5598;48.648;8.908;2023-02-28T03:10:28;-3.20;93.90
11089;DHT22;5598;48.648;8.908;2023-02-28T03:13:34;-3.20;93.90
11089;DHT22;5598;48.648;8.908;2023-02-28T03:16:49;-3.20;94.00
11089;DHT22;5598;48.648;8.908;2023-02-28T03:19:54;-3.10;94.10
11089;DHT22;5598;48.648;8.908;2023-02-28T03:22:49;-3.10;94.00
11089;DHT22;5598;48.648;8.908;2023-02-28T03:25:40;-3.00;94.10
11089;DHT22;5598;48.648;8.908;2023-02-28T03:28:32;-3.00;94.10
11089;DHT22;5598;48.648;8.908;2023-02-28T03:31:22;-3.00;94.10
11089;DHT22;5598;48.648;8.908;2023-02-28T03:34:14;-2.90;94.20
11089;DHT22;5598;48.648;8.908;2023-02-28T03:37:04;-3.00;94.10
11089;DHT22;5598;48.648;8.908;2023-02-28T03:39:54;-3.00;94.20
11089;DHT22;5598;48.648;8.908;2023-02-28T03:42:43;-3.10;94.30
11089;DHT22;5598;48.648;8.908;2023-02-28T03:45:30;-3.10;94.50
11089;DHT22;5598;48.648;8.908;2023-02-28T03:48:18;-3.00;94.70
11089;DHT22;5598;48.648;8.908;2023-02-28T03:51:08;-3.00;94.90
11089;DHT22;5598;48.648;8.908;2023-02-28T03:53:57;-2.90;94.90
11089;DHT22;5598;48.648;8.908;2023-02-28T03:56:47;-2.80;95.00
11089;DHT22;5598;48.648;8.908;2023-02-28T03:59:36;-2.80;94.90
11089;DHT22;5598;48.648;8.908;2023-02-28T04:02:21;-2.70;94.90
11089;DHT22;5598;48.648;8.908;2023-02-28T04:05:05;-2.70;95.00
11089;DHT22;5598;48.648;8.908;2023-02-28T04:07:50;-2.70;95.10
11089;DHT22;5598;48.648;8.908;2023-02-28T04:10:35;-2.70;95.20
11089;DHT22;5598;48.648;8.908;2023-02-28T04:13:19;-2.70;95.30
11089;DHT22;5598;48.648;8.908;2023-02-28T04:16:07;-2.60;95.50
11089;DHT22;5598;48.648;8.908;2023-02-28T04:18:51;-2.50;95.50
11089;DHT22;5598;48.648;8.908;2023-02-28T04:21:38;-2.50;95.40
11089;DHT22;5598;48.648;8.908;2023-02-28T04:24:25;-2.50;95.50
11089;DHT22;5598;48.648;8.908;2023-02-28T04:27:11;-2.40;95.40
11089;DHT22;5598;48.648;8.908;2023-02-28T04:29:55;-2.50;95.30
11089;DHT22;5598;48.648;8.908;2023-02-28T04:32:22;-2.40;95.60
11089;DHT22;5598;48.648;8.908;2023-02-28T04:34:51;-2.40;95.50
11089;DHT22;5598;48.648;8.908;2023-02-28T04:37:18;-2.30;95.60
11089;DHT22;5598;48.648;8.908;2023-02-28T04:39:45;-2.40;95.40
11089;DHT22;5598;48.648;8.908;2023-02-28T04:42:13;-2.30;95.40
11089;DHT22;5598;48.648;8.908;2023-02-28T04:44:40;-2.30;95.50
11089;DHT22;5598;48.648;8.908;2023-02-28T04:47:07;-2.30;95.60
11089;DHT22;5598;48.648;8.908;2023-02-28T04:49:33;-2.30;95.70
11089;DHT22;5598;48.648;8.908;2023-02-28T04:52:00;-2.20;95.60
11089;DHT22;5598;48.648;8.908;2023-02-28T04:54:27;-2.20;95.50
11089;DHT22;5598;48.648;8.908;2023-02-28T04:56:55;-2.10;95.40
11089;DHT22;5598;48.648;8.908;2023-02-28T04:59:24;-2.20;95.40
11089;DHT22;5598;48.648;8.908;2023-02-28T05:01:51;-2.20;95.50
11089;DHT22;5598;48.648;8.908;2023-02-28T05:04:17;-2.20;95.50
11089;DHT22;5598;48.648;8.908;2023-02-28T05:06:44;-2.20;95.60
11089;DHT22;5598;48.648;8.908;2023-02-28T05:09:11;-2.20;95.50
11089;DHT22;5598;48.648;8.908;2023-02-28T05:11:38;-2.20;95.80
11089;DHT22;5598;48.648;8.908;2023-02-28T05:14:09;-2.20;95.90
11089;DHT22;5598;48.648;8.908;2023-02-28T05:16:38;-2.10;95.80
11089;DHT22;5598;48.648;8.908;2023-02-28T05:19:05;-2.10;95.90
11089;DHT22;5598;48.648;8.908;2023-02-28T05:21:33;-2.10;95.90
11089;DHT22;5598;48.648;8.908;2023-02-28T05:24:02;-2.20;96.00
11089;DHT22;5598;48.648;8.908;2023-02-28T05:26:30;-2.20;96.40
11089;DHT22;5598;48.648;8.908;2023-02-28T05:28:57;-2.10;96.90
11089;DHT22;5598;48.648;8.908;2023-02-28T05:31:24;-2.10;96.80
11089;DHT22;5598;48.648;8.908;2023-02-28T05:33:52;-2.10;97.00
11089;DHT22;5598;48.648;8.908;2023-02-28T05:36:19;-2.10;97.00
11089;DHT22;5598;48.648;8.908;2023-02-28T05:38:47;-2.20;97.20
11089;DHT22;5598;48.648;8.908;2023-02-28T05:41:15;-2.20;97.70
11089;DHT22;5598;48.648;8.908;2023-02-28T05:43:42;-2.20;98.00
11089;DHT22;5598;48.648;8.908;2023-02-28T05:46:10;-2.10;98.20
11089;DHT22;5598;48.648;8.908;2023-02-28T05:48:39;-2.20;98.10
11089;DHT22;5598;48.648;8.908;2023-02-28T05:51:08;-2.20;98.20
11089;DHT22;5598;48.648;8.908;2023-02-28T05:53:35;-2.20;98.40
11089;DHT22;5598;48.648;8.908;2023-02-28T05:56:02;-2.20;98.40
11089;DHT22;5598;48.648;8.908;2023-02-28T05:58:29;-2.20;98.30
11089;DHT22;5598;48.648;8.908;2023-02-28T06:00:57;-2.20;98.30
11089;DHT22;5598;48.648;8.908;2023-02-28T06:03:24;-2.20;98.70
11089;DHT22;5598;48.648;8.908;2023-02-28T06:05:51;-2.10;99.10
11089;DHT22;5598;48.648;8.908;2023-02-28T06:08:19;-2.10;99.10
11089;DHT22;5598;48.648;8.908;2023-02-28T06:10:46;-2.20;99.30
11089;DHT22;5598;48.648;8.908;2023-02-28T06:13:13;-2.10;99.70
11089;DHT22;5598;48.648;8.908;2023-02-28T06:15:40;-2.10;99.70
11089;DHT22;5598;48.648;8.908;2023-02-28T06:18:07;-2.10;99.90
11089;DHT22;5598;48.648;8.908;2023-02-28T06:20:34;-2.10;99.90
11089;DHT22;5598;48.648;8.908;2023-02-28T06:23:01;-2.10;99.90
11089;DHT22;5598;48.648;8.908;2023-02-28T06:25:30;-2.10;99.90
11089;DHT22;5598;48.648;8.908;2023-02-28T06:27:57;-2.10;99.90
11089;DHT22;5598;48.648;8.908;2023-02-28T06:30:24;-2.10;99.90
11089;DHT22;5598;48.648;8.908;2023-02-28T06:32:52;-2.10;99.90
11089;DHT22;5598;48.648;8.908;2023-02-28T06:35:19;-2.10;99.90
11089;DHT22;5598;48.648;8.908;2023-02-28T06:37:46;-2.10;99.90
11089;DHT22;5598;48.648;8.908;2023-02-28T06:40:13;-2.10;99.90
11089;DHT22;5598;48.648;8.908;2023-02-28T06:42:42;-2.10;99.90
11089;DHT22;5598;48.648;8.908;2023-02-28T06:45:10;-2.10;99.90
11089;DHT22;5598;48.648;8.908;2023-02-28T06:47:38;-2.10;99.90
11089;DHT22;5598;48.648;8.908;2023-02-28T06:50:06;-2.10;99.90
11089;DHT22;5598;48.648;8.908;2023-02-28T06:52:36;-2.00;99.90
11089;DHT22;5598;48.648;8.908;2023-02-28T06:55:04;-2.00;99.90
11089;DHT22;5598;48.648;8.908;2023-02-28T06:57:31;-2.00;99.90
11089;DHT22;5598;48.648;8.908;2023-02-28T07:00:01;-2.00;99.90
11089;DHT22;5598;48.648;8.908;2023-02-28T07:02:29;-1.90;99.90
11089;DHT22;5598;48.648;8.908;2023-02-28T07:04:57;-1.90;99.90
11089;DHT22;5598;48.648;8.908;2023-02-28T07:07:23;-1.80;99.90
11089;DHT22;5598;48.648;8.908;2023-02-28T07:09:50;-1.80;99.90
11089;DHT22;5598;48.648;8.908;2023-02-28T07:12:17;-1.80;99.90
11089;DHT22;5598;48.648;8.908;2023-02-28T07:14:43;-1.80;99.90
11089;DHT22;5598;48.648;8.908;2023-02-28T07:17:12;-1.70;99.90
11089;DHT22;5598;48.648;8.908;2023-02-28T07:19:39;-1.70;99.90
11089;DHT22;5598;48.648;8.908;2023-02-28T07:22:06;-1.70;99.90
11089;DHT22;5598;48.648;8.908;2023-02-28T07:24:33;-1.60;99.90
11089;DHT22;5598;48.648;8.908;2023-02-28T07:26:59;-1.60;99.90
11089;DHT22;5598;48.648;8.908;2023-02-28T07:29:27;-1.60;99.90
11089;DHT22;5598;48.648;8.908;2023-02-28T07:31:53;-1.50;99.90
11089;DHT22;5598;48.648;8.908;2023-02-28T07:34:22;-1.50;99.90
11089;DHT22;5598;48.648;8.908;2023-02-28T07:36:49;-1.50;99.90
11089;DHT22;5598;48.648;8.908;2023-02-28T07:39:19;-1.50;99.90
11089;DHT22;5598;48.648;8.908;2023-02-28T07:41:45;-1.40;99.90
11089;DHT22;5598;48.648;8.908;2023-02-28T07:44:13;-1.30;99.90
11089;DHT22;5598;48.648;8.908;2023-02-28T07:46:40;-1.30;99.90
11089;DHT22;5598;48.648;8.908;2023-02-28T07:49:06;-1.30;99.90
11089;DHT22;5598;48.648;8.908;2023-02-28T07:51:35;-1.30;99.90
11089;DHT22;5598;48.648;8.908;2023-02-28T07:54:02;-1.20;99.50
11089;DHT22;5598;48.648;8.908;2023-02-28T07:56:28;-1.20;99.40
11089;DHT22;5598;48.648;8.908;2023-02-28T07:58:55;-1.20;99.70
11089;DHT22;5598;48.648;8.908;2023-02-28T08:01:22;-1.10;99.50
11089;DHT22;5598;48.648;8.908;2023-02-28T08:03:49;-1.10;99.40
11089;DHT22;5598;48.648;8.908;2023-02-28T08:06:17;-1.10;99.00
11089;DHT22;5598;48.648;8.908;2023-02-28T08:08:46;-1.10;98.80
11089;DHT22;5598;48.648;8.908;2023-02-28T08:11:13;-1.00;99.00
11089;DHT22;5598;48.648;8.908;2023-02-28T08:13:40;-1.00;98.50
11089;DHT22;5598;48.648;8.908;2023-02-28T08:16:07;-1.00;98.10
11089;DHT22;5598;48.648;8.908;2023-02-28T08:18:34;-0.90;98.10
11089;DHT22;5598;48.648;8.908;2023-02-28T08:21:06;-0.90;98.30
11089;DHT22;5598;48.648;8.908;2023-02-28T08:23:32;-0.90;98.00
11089;DHT22;5598;48.648;8.908;2023-02-28T08:26:02;-0.90;97.60
11089;DHT22;5598;48.648;8.908;2023-02-28T08:28:29;-0.80;97.80
11089;DHT22;5598;48.648;8.908;2023-02-28T08:30:56;-0.80;97.70
11089;DHT22;5598;48.648;8.908;2023-02-28T08:33:23;-0.80;97.40
11089;DHT22;5598;48.648;8.908;2023-02-28T08:35:52;-0.80;97.40
11089;DHT22;5598;48.648;8.908;2023-02-28T08:38:20;-0.80;97.00
11089;DHT22;5598;48.648;8.908;2023-02-28T08:40:47;-0.80;96.70
11089;DHT22;5598;48.648;8.908;2023-02-28T08:43:15;-0.70;97.10
11089;DHT22;5598;48.648;8.908;2023-02-28T08:45:42;-0.70;97.30
11089;DHT22;5598;48.648;8.908;2023-02-28T08:48:09;-0.60;97.00
11089;DHT22;5598;48.648;8.908;2023-02-28T08:50:36;-0.60;97.00
11089;DHT22;5598;48.648;8.908;2023-02-28T08:53:05;-0.50;96.80
11089;DHT22;5598;48.648;8.908;2023-02-28T08:55:31;-0.50;96.70
11089;DHT22;5598;48.648;8.908;2023-02-28T08:57:58;-0.50;96.40
11089;DHT22;5598;48.648;8.908;2023-02-28T09:00:28;-0.50;95.60
11089;DHT22;5598;48.648;8.908;2023-02-28T09:02:55;-0.50;95.90
11089;DHT22;5598;48.648;8.908;2023-02-28T09:05:22;-0.50;96.20
11089;DHT22;5598;48.648;8.908;2023-02-28T09:07:49;-0.50;96.20
11089;DHT22;5598;48.648;8.908;2023-02-28T09:10:16;-0.40;96.10
11089;DHT22;5598;48.648;8.908;2023-02-28T09:12:43;-0.40;96.30
11089;DHT22;5598;48.648;8.908;2023-02-28T09:15:12;-0.30;96.30
11089;DHT22;5598;48.648;8.908;2023-02-28T09:17:40;-0.20;96.30
11089;DHT22;5598;48.648;8.908;2023-02-28T09:20:08;-0.20;95.80
11089;DHT22;5598;48.648;8.908;2023-02-28T09:22:35;-0.10;95.80
11089;DHT22;5598;48.648;8.908;2023-02-28T09:25:02;-0.10;95.20
11089;DHT22;5598;48.648;8.908;2023-02-28T09:27:29;-0.10;95.60
11089;DHT22;5598;48.648;8.908;2023-02-28T09:29:55;-0.10;95.60
11089;DHT22;5598;48.648;8.908;2023-02-28T09:32:22;-0.10;95.30
11089;DHT22;5598;48.648;8.908;2023-02-28T09:34:50;-0.10;95.20
11089;DHT22;5598;48.648;8.908;2023-02-28T09:37:17;-0.10;95.40
11089;DHT22;5598;48.648;8.908;2023-02-28T09:39:44;0.00;95.00
11089;DHT22;5598;48.648;8.908;2023-02-28T09:42:20;0.00;95.00
11089;DHT22;5598;48.648;8.908;2023-02-28T09:44:47;0.10;95.00
11089;DHT22;5598;48.648;8.908;2023-02-28T09:47:18;0.20;95.10
11089;DHT22;5598;48.648;8.908;2023-02-28T09:49:50;0.20;94.80
11089;DHT22;5598;48.648;8.908;2023-02-28T09:52:18;0.20;94.80
11089;DHT22;5598;48.648;8.908;2023-02-28T09:54:45;0.30;94.40
11089;DHT22;5598;48.648;8.908;2023-02-28T09:57:31;0.30;93.70
11089;DHT22;5598;48.648;8.908;2023-02-28T10:00:05;0.30;93.70
11089;DHT22;5598;48.648;8.908;2023-02-28T10:05:29;0.40;93.50
11089;DHT22;5598;48.648;8.908;2023-02-28T10:08:02;0.50;93.60
11089;DHT22;5598;48.648;8.908;2023-02-28T10:10:36;0.50;93.30
11089;DHT22;5598;48.648;8.908;2023-02-28T10:13:11;0.50;92.60
11089;DHT22;5598;48.648;8.908;2023-02-28T10:15:39;0.50;93.10
11089;DHT22;5598;48.648;8.908;2023-02-28T10:18:12;0.50;92.70
11089;DHT22;5598;48.648;8.908;2023-02-28T10:20:42;0.50;93.00
11089;DHT22;5598;48.648;8.908;2023-02-28T10:23:13;0.50;93.30
11089;DHT22;5598;48.648;8.908;2023-02-28T10:25:43;0.50;92.40
11089;DHT22;5598;48.648;8.908;2023-02-28T10:28:15;0.50;92.60
11089;DHT22;5598;48.648;8.908;2023-02-28T10:30:45;0.50;92.60
11089;DHT22;5598;48.648;8.908;2023-02-28T10:33:19;0.50;92.00
11089;DHT22;5598;48.648;8.908;2023-02-28T10:35:48;0.60;92.30
11089;DHT22;5598;48.648;8.908;2023-02-28T10:38:18;0.70;92.20
11089;DHT22;5598;48.648;8.908;2023-02-28T10:40:45;0.70;91.80
11089;DHT22;5598;48.648;8.908;2023-02-28T10:43:21;0.70;91.60
11089;DHT22;5598;48.648;8.908;2023-02-28T10:45:58;0.80;92.20
11089;DHT22;5598;48.648;8.908;2023-02-28T10:48:37;0.90;92.10
11089;DHT22;5598;48.648;8.908;2023-02-28T10:51:08;1.10;92.20
11089;DHT22;5598;48.648;8.908;2023-02-28T10:53:39;1.20;91.50
11089;DHT22;5598;48.648;8.908;2023-02-28T10:56:16;1.20;90.70
11089;DHT22;5598;48.648;8.908;2023-02-28T10:58:50;1.20;91.50
11089;DHT22;5598;48.648;8.908;2023-02-28T11:01:19;1.30;91.80
11089;DHT22;5598;48.648;8.908;2023-02-28T11:03:47;1.40;91.00
11089;DHT22;5598;48.648;8.908;2023-02-28T11:06:18;1.50;91.10
11089;DHT22;5598;48.648;8.908;2023-02-28T11:08:48;1.50;90.00
11089;DHT22;5598;48.648;8.908;2023-02-28T11:11:17;1.40;90.00
11089;DHT22;5598;48.648;8.908;2023-02-28T11:13:46;1.40;89.90
11089;DHT22;5598;48.648;8.908;2023-02-28T11:16:14;1.30;90.10
11089;DHT22;5598;48.648;8.908;2023-02-28T11:18:46;1.30;90.50
11089;DHT22;5598;48.648;8.908;2023-02-28T11:21:21;1.40;90.30
11089;DHT22;5598;48.648;8.908;2023-02-28T11:23:51;1.60;90.40
11089;DHT22;5598;48.648;8.908;2023-02-28T11:26:36;1.80;90.10
11089;DHT22;5598;48.648;8.908;2023-02-28T11:29:11;1.90;88.10
11089;DHT22;5598;48.648;8.908;2023-02-28T11:31:39;1.90;89.80
11089;DHT22;5598;48.648;8.908;2023-02-28T11:34:23;1.90;87.70
11089;DHT22;5598;48.648;8.908;2023-02-28T11:36:54;2.00;88.90
11089;DHT22;5598;48.648;8.908;2023-02-28T11:39:22;2.00;87.80
11089;DHT22;5598;48.648;8.908;2023-02-28T11:42:09;2.20;87.50
11089;DHT22;5598;48.648;8.908;2023-02-28T11:44:47;2.30;87.40
11089;DHT22;5598;48.648;8.908;2023-02-28T11:47:26;2.40;87.90
11089;DHT22;5598;48.648;8.908;2023-02-28T11:52:54;3.00;86.50
11089;DHT22;5598;48.648;8.908;2023-02-28T11:55:25;3.20;86.70
11089;DHT22;5598;48.648;8.908;2023-02-28T11:58:20;3.40;84.40
11089;DHT22;5598;48.648;8.908;2023-02-28T12:03:54;4.30;81.60
11089;DHT22;5598;48.648;8.908;2023-02-28T12:06:26;4.20;80.80
11089;DHT22;5598;48.648;8.908;2023-02-28T12:09:04;4.20;82.30
11089;DHT22;5598;48.648;8.908;2023-02-28T12:11:42;4.30;79.80
11089;DHT22;5598;48.648;8.908;2023-02-28T12:14:32;4.60;81.80
11089;DHT22;5598;48.648;8.908;2023-02-28T12:17:14;5.70;79.00
11089;DHT22;5598;48.648;8.908;2023-02-28T12:19:50;6.10;77.10
11089;DHT22;5598;48.648;8.908;2023-02-28T12:22:31;6.00;75.50
11089;DHT22;5598;48.648;8.908;2023-02-28T12:25:22;5.80;75.20
11089;DHT22;5598;48.648;8.908;2023-02-28T12:27:51;5.90;76.60
11089;DHT22;5598;48.648;8.908;2023-02-28T12:30:22;6.40;75.10
11089;DHT22;5598;48.648;8.908;2023-02-28T12:32:54;7.20;74.00
11089;DHT22;5598;48.648;8.908;2023-02-28T12:35:24;8.10;70.90
11089;DHT22;5598;48.648;8.908;2023-02-28T12:37:56;9.10;70.10
11089;DHT22;5598;48.648;8.908;2023-02-28T12:40:34;8.70;67.60
11089;DHT22;5598;48.648;8.908;2023-02-28T12:43:09;8.30;70.00
11089;DHT22;5598;48.648;8.908;2023-02-28T12:45:40;9.50;72.90
11089;DHT22;5598;48.648;8.908;2023-02-28T12:48:10;10.60;66.80
11089;DHT22;5598;48.648;8.908;2023-02-28T12:50:40;11.00;63.40
11089;DHT22;5598;48.648;8.908;2023-02-28T12:53:11;10.60;63.00
11089;DHT22;5598;48.648;8.908;2023-02-28T12:55:45;10.20;61.90
11089;DHT22;5598;48.648;8.908;2023-02-28T12:58:19;9.60;66.10
11089;DHT22;5598;48.648;8.908;2023-02-28T13:03:54;9.90;66.60
11089;DHT22;5598;48.648;8.908;2023-02-28T13:06:45;9.80;66.10
11089;DHT22;5598;48.648;8.908;2023-02-28T13:09:19;9.50;65.40
11089;DHT22;5598;48.648;8.908;2023-02-28T13:11:49;9.40;66.50
11089;DHT22;5598;48.648;8.908;2023-02-28T13:14:22;9.80;64.10
11089;DHT22;5598;48.648;8.908;2023-02-28T13:17:10;9.90;64.00
11089;DHT22;5598;48.648;8.908;2023-02-28T13:19:40;9.30;64.40
11089;DHT22;5598;48.648;8.908;2023-02-28T13:22:18;8.90;64.10
11089;DHT22;5598;48.648;8.908;2023-02-28T13:24:47;8.70;65.50
11089;DHT22;5598;48.648;8.908;2023-02-28T13:27:32;8.70;65.00
11089;DHT22;5598;48.648;8.908;2023-02-28T13:30:00;8.90;64.80
11089;DHT22;5598;48.648;8.908;2023-02-28T13:32:33;9.40;64.50
11089;DHT22;5598;48.648;8.908;2023-02-28T13:35:16;9.40;64.30
11089;DHT22;5598;48.648;8.908;2023-02-28T13:38:32;9.00;64.00
11089;DHT22;5598;48.648;8.908;2023-02-28T13:44:08;8.20;67.50
11089;DHT22;5598;48.648;8.908;2023-02-28T13:46:37;7.90;65.20
11089;DHT22;5598;48.648;8.908;2023-02-28T13:49:25;7.30;65.60
11089;DHT22;5598;48.648;8.908;2023-02-28T13:51:56;7.00;67.20
11089;DHT22;5598;48.648;8.908;2023-02-28T13:54:39;7.00;68.80
11089;DHT22;5598;48.648;8.908;2023-02-28T13:57:21;7.10;69.90
11089;DHT22;5598;48.648;8.908;2023-02-28T14:00:02;7.20;70.00
11089;DHT22;5598;48.648;8.908;2023-02-28T14:05:32;7.30;68.50
11089;DHT22;5598;48.648;8.908;2023-02-28T14:08:05;7.40;70.90
11089;DHT22;5598;48.648;8.908;2023-02-28T14:10:36;7.40;68.50
11089;DHT22;5598;48.648;8.908;2023-02-28T14:13:12;7.20;67.90
11089;DHT22;5598;48.648;8.908;2023-02-28T14:15:54;6.90;68.70
11089;DHT22;5598;48.648;8.908;2023-02-28T14:18:28;6.90;69.70
11089;DHT22;5598;48.648;8.908;2023-02-28T14:21:01;6.80;68.30
11089;DHT22;5598;48.648;8.908;2023-02-28T14:23:56;6.50;69.30
11089;DHT22;5598;48.648;8.908;2023-02-28T14:26:44;6.30;69.70
11089;DHT22;5598;48.648;8.908;2023-02-28T14:29:42;6.40;69.50
11089;DHT22;5598;48.648;8.908;2023-02-28T14:32:15;6.50;71.50
11089;DHT22;5598;48.648;8.908;2023-02-28T14:34:51;6.70;70.10
11089;DHT22;5598;48.648;8.908;2023-02-28T14:37:27;6.60;69.00
11089;DHT22;5598;48.648;8.908;2023-02-28T14:39:54;6.50;68.80
11089;DHT22;5598;48.648;8.908;2023-02-28T14:42:28;6.40;70.30
11089;DHT22;5598;48.648;8.908;2023-02-28T14:44:56;6.50;70.60
11089;DHT22;5598;48.648;8.908;2023-02-28T14:47:27;6.50;69.90
11089;DHT22;5598;48.648;8.908;2023-02-28T14:49:55;6.50;70.30
11089;DHT22;5598;48.648;8.908;2023-02-28T14:52:23;6.60;70.30
11089;DHT22;5598;48.648;8.908;2023-02-28T14:54:54;6.70;70.50
11089;DHT22;5598;48.648;8.908;2023-02-28T14:57:23;6.70;69.10
11089;DHT22;5598;48.648;8.908;2023-02-28T14:59:58;6.80;70.50
11089;DHT22;5598;48.648;8.908;2023-02-28T15:02:30;6.80;70.00
11089;DHT22;5598;48.648;8.908;2023-02-28T15:04:59;6.70;69.50
11089;DHT22;5598;48.648;8.908;2023-02-28T15:07:27;6.50;69.20
11089;DHT22;5598;48.648;8.908;2023-02-28T15:10:15;6.30;69.70
11089;DHT22;5598;48.648;8.908;2023-02-28T15:12:49;5.90;69.50
11089;DHT22;5598;48.648;8.908;2023-02-28T15:15:18;5.70;70.40
11089;DHT22;5598;48.648;8.908;2023-02-28T15:17:50;5.70;70.80
11089;DHT22;5598;48.648;8.908;2023-02-28T15:20:18;5.70;71.30
11089;DHT22;5598;48.648;8.908;2023-02-28T15:22:46;5.60;70.70
11089;DHT22;5598;48.648;8.908;2023-02-28T15:25:18;5.60;71.50
11089;DHT22;5598;48.648;8.908;2023-02-28T15:27:47;5.60;71.90
11089;DHT22;5598;48.648;8.908;2023-02-28T15:30:17;5.60;72.10
11089;DHT22;5598;48.648;8.908;2023-02-28T15:32:44;5.60;72.10
11089;DHT22;5598;48.648;8.908;2023-02-28T15:35:24;5.60;72.80
11089;DHT22;5598;48.648;8.908;2023-02-28T15:37:54;5.60;72.80
11089;DHT22;5598;48.648;8.908;2023-02-28T15:40:25;5.50;72.10
11089;DHT22;5598;48.648;8.908;2023-02-28T15:43:00;5.60;73.10
11089;DHT22;5598;48.648;8.908;2023-02-28T15:45:34;5.50;72.20
11089;DHT22;5598;48.648;8.908;2023-02-28T15:48:04;5.40;72.30
11089;DHT22;5598;48.648;8.908;2023-02-28T15:50:32;5.30;72.20
11089;DHT22;5598;48.648;8.908;2023-02-28T15:53:00;5.20;72.50
11089;DHT22;5598;48.648;8.908;2023-02-28T15:55:29;5.10;72.30
11089;DHT22;5598;48.648;8.908;2023-02-28T15:57:59;5.10;73.30
11089;DHT22;5598;48.648;8.908;2023-02-28T16:00:28;5.00;73.50
11089;DHT22;5598;48.648;8.908;2023-02-28T16:02:55;4.90;72.70
11089;DHT22;5598;48.648;8.908;2023-02-28T16:05:27;4.80;72.90
11089;DHT22;5598;48.648;8.908;2023-02-28T16:07:59;4.70;73.50
11089;DHT22;5598;48.648;8.908;2023-02-28T16:10:27;4.70;73.90
11089;DHT22;5598;48.648;8.908;2023-02-28T16:12:55;4.60;74.10
11089;DHT22;5598;48.648;8.908;2023-02-28T16:15:24;4.60;74.80
11089;DHT22;5598;48.648;8.908;2023-02-28T16:17:53;4.50;74.70
11089;DHT22;5598;48.648;8.908;2023-02-28T16:20:22;4.50;74.90
11089;DHT22;5598;48.648;8.908;2023-02-28T16:22:49;4.40;74.70
11089;DHT22;5598;48.648;8.908;2023-02-28T16:25:19;4.40;75.10
11089;DHT22;5598;48.648;8.908;2023-02-28T16:27:48;4.30;75.00
11089;DHT22;5598;48.648;8.908;2023-02-28T16:30:19;4.20;75.00
11089;DHT22;5598;48.648;8.908;2023-02-28T16:32:46;4.10;74.80
11089;DHT22;5598;48.648;8.908;2023-02-28T16:35:13;4.00;75.40
11089;DHT22;5598;48.648;8.908;2023-02-28T16:37:40;3.90;75.90
11089;DHT22;5598;48.648;8.908;2023-02-28T16:40:13;3.90;76.20
11089;DHT22;5598;48.648;8.908;2023-02-28T16:42:42;3.70;76.10
11089;DHT22;5598;48.648;8.908;2023-02-28T16:45:15;3.70;77.10